CAL51 RCTP-YSSY
Flight info
| Callsign | CAL51 |
|---|---|
| Flight time | 2h 41m |
| Altitude | 35000 |
| Route | KUDOS1A KUDOS R595 TUNTO DCT 21N131E 14N136E 07N140E DCT KEONE/N0483F370 R204 LIDIT/N0480F380 DCT WP/N0475F390 DCT GULOP Y173 UBGAN Y161 OVNOM H652 BOREE |
| Aircraft | A343/H-SDE2E3FGHIJ4J5M1RWXY/LB1D1 |
Departure
| Time | 2026-05-07 17:35 |
|---|---|
| Airport | Taiwan Taoyuan International Airport (RCTP) |
Arrival
| Time | 2026-05-07 20:16 |
|---|---|
| Airport | Sydney Kingsford Smith International Airport (YSSY) |
| Time | Latitude | Longitude | Altitude | Speed | Heading |
|---|---|---|---|---|---|
| 2026-05-07 17:14 | 25.07984 | 121.23904 | 105 ft | 0 kts | 320° |
| 2026-05-07 17:22 | 25.07982 | 121.23906 | 105 ft | 2 kts | 320° |
| 2026-05-07 17:23 | 25.07962 | 121.23925 | 102 ft | 4 kts | 320° |
| 2026-05-07 17:23 | 25.07941 | 121.23944 | 103 ft | 4 kts | 319° |
| 2026-05-07 17:23 | 25.07921 | 121.23964 | 103 ft | 4 kts | 319° |
| 2026-05-07 17:23 | 25.07905 | 121.23980 | 102 ft | 4 kts | 305° |
| 2026-05-07 17:24 | 25.07896 | 121.24005 | 104 ft | 4 kts | 259° |
| 2026-05-07 17:24 | 25.07907 | 121.24028 | 106 ft | 4 kts | 229° |
| 2026-05-07 17:24 | 25.07919 | 121.24043 | 103 ft | 0 kts | 229° |
| 2026-05-07 17:26 | 25.07918 | 121.24043 | 104 ft | 1 kts | 229° |
| 2026-05-07 17:26 | 25.07910 | 121.24032 | 105 ft | 3 kts | 229° |
| 2026-05-07 17:27 | 25.07892 | 121.24009 | 104 ft | 5 kts | 229° |
| 2026-05-07 17:27 | 25.07861 | 121.23969 | 104 ft | 8 kts | 229° |
| 2026-05-07 17:27 | 25.07817 | 121.23913 | 104 ft | 11 kts | 229° |
| 2026-05-07 17:27 | 25.07762 | 121.23843 | 104 ft | 13 kts | 229° |
| 2026-05-07 17:28 | 25.07698 | 121.23761 | 104 ft | 14 kts | 229° |
| 2026-05-07 17:28 | 25.07627 | 121.23696 | 105 ft | 13 kts | 193° |
| 2026-05-07 17:28 | 25.07557 | 121.23737 | 106 ft | 11 kts | 138° |
| 2026-05-07 17:28 | 25.07492 | 121.23784 | 103 ft | 11 kts | 170° |
| 2026-05-07 17:29 | 25.07434 | 121.23745 | 104 ft | 10 kts | 226° |
| 2026-05-07 17:29 | 25.07380 | 121.23676 | 106 ft | 13 kts | 227° |
| 2026-05-07 17:29 | 25.07314 | 121.23592 | 103 ft | 16 kts | 229° |
| 2026-05-07 17:29 | 25.07237 | 121.23498 | 104 ft | 18 kts | 228° |
| 2026-05-07 17:30 | 25.07152 | 121.23389 | 106 ft | 20 kts | 229° |
| 2026-05-07 17:30 | 25.07058 | 121.23270 | 106 ft | 21 kts | 229° |
| 2026-05-07 17:30 | 25.06956 | 121.23142 | 105 ft | 23 kts | 229° |
| 2026-05-07 17:30 | 25.06848 | 121.23006 | 105 ft | 25 kts | 229° |
| 2026-05-07 17:31 | 25.06734 | 121.22859 | 106 ft | 26 kts | 229° |
| 2026-05-07 17:31 | 25.06614 | 121.22706 | 105 ft | 27 kts | 229° |
| 2026-05-07 17:31 | 25.06495 | 121.22556 | 105 ft | 25 kts | 229° |
| 2026-05-07 17:31 | 25.06390 | 121.22421 | 106 ft | 19 kts | 227° |
| 2026-05-07 17:32 | 25.06322 | 121.22338 | 106 ft | 11 kts | 224° |
| 2026-05-07 17:32 | 25.06260 | 121.22336 | 104 ft | 7 kts | 141° |
| 2026-05-07 17:32 | 25.06233 | 121.22363 | 104 ft | 6 kts | 137° |
| 2026-05-07 17:32 | 25.06210 | 121.22386 | 104 ft | 8 kts | 140° |
| 2026-05-07 17:33 | 25.06165 | 121.22449 | 99 ft | 7 kts | 91° |
| 2026-05-07 17:33 | 25.06181 | 121.22479 | 102 ft | 0 kts | 50° |
| 2026-05-07 17:33 | 25.06184 | 121.22483 | 101 ft | 4 kts | 49° |
| 2026-05-07 17:33 | 25.06272 | 121.22594 | 99 ft | 42 kts | 49° |
| 2026-05-07 17:34 | 25.06576 | 121.22980 | 100 ft | 89 kts | 49° |
| 2026-05-07 17:34 | 25.07072 | 121.23607 | 100 ft | 127 kts | 49° |
| 2026-05-07 17:34 | 25.07488 | 121.24133 | 96 ft | 149 kts | 49° |
| 2026-05-07 17:34 | 25.08226 | 121.25074 | 224 ft | 165 kts | 45° |
| 2026-05-07 17:35 | 25.08964 | 121.25975 | 722 ft | 155 kts | 47° |
| 2026-05-07 17:35 | 25.09704 | 121.26868 | 997 ft | 162 kts | 47° |
| 2026-05-07 17:35 | 25.10718 | 121.28149 | 1395 ft | 170 kts | 49° |
| 2026-05-07 17:35 | 25.11471 | 121.29165 | 1753 ft | 174 kts | 50° |
| 2026-05-07 17:36 | 25.11993 | 121.29885 | 1991 ft | 180 kts | 51° |
| 2026-05-07 17:36 | 25.12815 | 121.30988 | 2282 ft | 194 kts | 49° |
| 2026-05-07 17:36 | 25.13768 | 121.32141 | 2506 ft | 212 kts | 45° |
| 2026-05-07 17:36 | 25.14868 | 121.33347 | 2716 ft | 234 kts | 45° |
| 2026-05-07 17:37 | 25.16060 | 121.34677 | 3082 ft | 252 kts | 46° |
| 2026-05-07 17:37 | 25.17330 | 121.36103 | 3460 ft | 267 kts | 45° |
| 2026-05-07 17:37 | 25.18643 | 121.37589 | 4058 ft | 274 kts | 46° |
| 2026-05-07 17:37 | 25.19964 | 121.39099 | 4657 ft | 280 kts | 46° |
| 2026-05-07 17:38 | 25.21331 | 121.40668 | 5233 ft | 286 kts | 46° |
| 2026-05-07 17:38 | 25.22722 | 121.42268 | 5849 ft | 291 kts | 46° |
| 2026-05-07 17:38 | 25.24133 | 121.43893 | 6472 ft | 296 kts | 46° |
| 2026-05-07 17:38 | 25.25563 | 121.45546 | 7074 ft | 299 kts | 46° |
| 2026-05-07 17:39 | 25.26780 | 121.47408 | 7709 ft | 301 kts | 66° |
| 2026-05-07 17:39 | 25.27221 | 121.49643 | 8348 ft | 299 kts | 94° |
| 2026-05-07 17:39 | 25.26836 | 121.51889 | 8992 ft | 298 kts | 109° |
| 2026-05-07 17:39 | 25.26202 | 121.54080 | 9588 ft | 302 kts | 111° |
| 2026-05-07 17:40 | 25.25538 | 121.56299 | 10124 ft | 307 kts | 110° |
| 2026-05-07 17:40 | 25.24859 | 121.58595 | 10401 ft | 321 kts | 110° |
| 2026-05-07 17:40 | 25.22491 | 121.66753 | 11121 ft | 368 kts | 109° |
| 2026-05-07 17:40 | 25.19193 | 121.78190 | 12214 ft | 405 kts | 109° |
| 2026-05-07 17:41 | 25.15707 | 121.90250 | 13946 ft | 418 kts | 109° |
| 2026-05-07 17:41 | 25.12667 | 122.02804 | 15558 ft | 430 kts | 98° |
| 2026-05-07 17:41 | 25.11642 | 122.16158 | 17178 ft | 441 kts | 95° |
| 2026-05-07 17:41 | 25.10548 | 122.29815 | 18719 ft | 453 kts | 96° |
| 2026-05-07 17:42 | 25.09222 | 122.43630 | 20038 ft | 464 kts | 97° |
| 2026-05-07 17:42 | 25.07818 | 122.57922 | 21397 ft | 474 kts | 97° |
| 2026-05-07 17:42 | 25.06392 | 122.72527 | 22618 ft | 484 kts | 97° |
| 2026-05-07 17:42 | 25.04915 | 122.87479 | 23781 ft | 493 kts | 97° |
| 2026-05-07 17:43 | 25.03407 | 123.02625 | 24806 ft | 501 kts | 97° |
| 2026-05-07 17:43 | 25.01860 | 123.18031 | 25800 ft | 509 kts | 97° |
| 2026-05-07 17:43 | 25.00273 | 123.33656 | 26773 ft | 516 kts | 97° |
| 2026-05-07 17:43 | 24.98644 | 123.49467 | 27710 ft | 523 kts | 97° |
| 2026-05-07 17:44 | 24.96975 | 123.65529 | 28593 ft | 530 kts | 97° |
| 2026-05-07 17:44 | 24.95278 | 123.81703 | 29714 ft | 530 kts | 98° |
| 2026-05-07 17:44 | 24.93567 | 123.97828 | 30740 ft | 528 kts | 97° |
| 2026-05-07 17:44 | 24.91753 | 124.13776 | 31738 ft | 524 kts | 98° |
| 2026-05-07 17:45 | 24.89864 | 124.29625 | 32739 ft | 518 kts | 98° |
| 2026-05-07 17:45 | 24.87998 | 124.45347 | 33562 ft | 516 kts | 97° |
| 2026-05-07 17:45 | 24.86125 | 124.60987 | 34239 ft | 515 kts | 97° |
| 2026-05-07 17:45 | 24.84233 | 124.76646 | 34754 ft | 515 kts | 97° |
| 2026-05-07 17:46 | 24.82327 | 124.92328 | 34963 ft | 520 kts | 97° |
| 2026-05-07 17:46 | 24.80388 | 125.08047 | 34966 ft | 518 kts | 97° |
| 2026-05-07 17:46 | 24.73566 | 125.38574 | 34966 ft | 516 kts | 117° |
| 2026-05-07 17:47 | 24.60567 | 125.66485 | 34963 ft | 516 kts | 117° |
| 2026-05-07 17:47 | 24.47511 | 125.94544 | 34963 ft | 516 kts | 118° |
| 2026-05-07 17:48 | 24.34407 | 126.22530 | 34966 ft | 516 kts | 118° |
| 2026-05-07 17:48 | 24.21237 | 126.50490 | 34966 ft | 516 kts | 118° |
| 2026-05-07 17:49 | 24.08097 | 126.78454 | 34969 ft | 515 kts | 117° |
| 2026-05-07 17:49 | 23.95278 | 127.06467 | 34977 ft | 514 kts | 117° |
| 2026-05-07 17:50 | 23.82410 | 127.34326 | 34967 ft | 513 kts | 117° |
| 2026-05-07 17:50 | 23.69591 | 127.61922 | 34966 ft | 512 kts | 117° |
| 2026-05-07 17:51 | 23.56613 | 127.89696 | 34966 ft | 508 kts | 117° |
| 2026-05-07 17:51 | 23.43821 | 128.16918 | 34969 ft | 507 kts | 117° |
| 2026-05-07 17:52 | 23.30958 | 128.44138 | 34969 ft | 505 kts | 117° |
| 2026-05-07 17:52 | 23.18052 | 128.71295 | 34963 ft | 504 kts | 117° |
| 2026-05-07 17:53 | 23.05158 | 128.98281 | 34968 ft | 502 kts | 117° |
| 2026-05-07 17:53 | 22.97541 | 129.10878 | 34965 ft | 501 kts | 136° |
| 2026-05-07 17:53 | 22.87246 | 129.21058 | 34963 ft | 501 kts | 139° |
| 2026-05-07 17:54 | 22.66466 | 129.41183 | 34965 ft | 501 kts | 138° |
| 2026-05-07 17:54 | 22.45695 | 129.61286 | 34961 ft | 501 kts | 139° |
| 2026-05-07 17:55 | 22.24898 | 129.81327 | 34965 ft | 501 kts | 139° |
| 2026-05-07 17:55 | 22.03991 | 130.01391 | 34956 ft | 503 kts | 139° |
| 2026-05-07 17:56 | 21.83156 | 130.21305 | 34965 ft | 504 kts | 139° |
| 2026-05-07 17:56 | 21.62142 | 130.41308 | 34972 ft | 504 kts | 139° |
| 2026-05-07 17:57 | 21.44524 | 130.58016 | 34963 ft | 504 kts | 140° |
| 2026-05-07 17:57 | 21.20030 | 130.81151 | 34970 ft | 504 kts | 140° |
| 2026-05-07 17:58 | 20.98831 | 131.00803 | 34967 ft | 503 kts | 145° |
| 2026-05-07 17:58 | 20.75935 | 131.18039 | 34964 ft | 503 kts | 146° |
| 2026-05-07 17:59 | 20.53005 | 131.35169 | 34963 ft | 503 kts | 147° |
| 2026-05-07 17:59 | 20.30051 | 131.52253 | 34966 ft | 503 kts | 147° |
| 2026-05-07 18:00 | 20.07086 | 131.69282 | 34966 ft | 502 kts | 147° |
| 2026-05-07 18:00 | 19.84124 | 131.86247 | 34963 ft | 502 kts | 147° |
| 2026-05-07 18:01 | 19.61185 | 132.03135 | 34955 ft | 502 kts | 147° |
| 2026-05-07 18:01 | 19.38207 | 132.19991 | 34956 ft | 502 kts | 147° |
| 2026-05-07 18:02 | 19.03852 | 132.45084 | 34956 ft | 502 kts | 148° |
| 2026-05-07 18:03 | 18.80866 | 132.61802 | 34953 ft | 501 kts | 148° |
| 2026-05-07 18:03 | 18.57903 | 132.78445 | 34950 ft | 501 kts | 148° |
| 2026-05-07 18:04 | 18.34947 | 132.95030 | 34935 ft | 501 kts | 148° |
| 2026-05-07 18:04 | 18.11967 | 133.11576 | 34948 ft | 500 kts | 148° |
| 2026-05-07 18:05 | 17.88993 | 133.28066 | 34938 ft | 499 kts | 148° |
| 2026-05-07 18:05 | 17.66013 | 133.44507 | 34936 ft | 499 kts | 149° |
| 2026-05-07 18:06 | 17.43023 | 133.60903 | 34933 ft | 500 kts | 149° |
| 2026-05-07 18:06 | 17.20026 | 133.77254 | 34930 ft | 499 kts | 149° |
| 2026-05-07 18:07 | 16.97050 | 133.93539 | 34925 ft | 499 kts | 150° |
| 2026-05-07 18:07 | 16.74061 | 134.09785 | 34922 ft | 498 kts | 150° |
| 2026-05-07 18:08 | 16.51081 | 134.25976 | 34923 ft | 498 kts | 150° |
| 2026-05-07 18:08 | 16.28069 | 134.42143 | 34915 ft | 499 kts | 150° |
| 2026-05-07 18:09 | 16.05202 | 134.58162 | 34909 ft | 499 kts | 150° |
| 2026-05-07 18:09 | 15.82187 | 134.74239 | 34910 ft | 498 kts | 149° |
| 2026-05-07 18:10 | 15.59175 | 134.90270 | 34905 ft | 498 kts | 149° |
| 2026-05-07 18:10 | 15.36164 | 135.06255 | 34902 ft | 497 kts | 149° |
| 2026-05-07 18:11 | 15.13178 | 135.22180 | 34895 ft | 496 kts | 149° |
| 2026-05-07 18:11 | 14.90285 | 135.38000 | 34895 ft | 494 kts | 149° |
| 2026-05-07 18:12 | 14.67438 | 135.53746 | 34889 ft | 493 kts | 149° |
| 2026-05-07 18:12 | 14.44599 | 135.69446 | 34877 ft | 492 kts | 149° |
| 2026-05-07 18:13 | 14.21785 | 135.85090 | 34878 ft | 492 kts | 149° |
| 2026-05-07 18:13 | 13.99104 | 136.00604 | 34878 ft | 493 kts | 149° |
| 2026-05-07 18:14 | 13.75317 | 136.14489 | 34875 ft | 491 kts | 153° |
| 2026-05-07 18:14 | 13.51544 | 136.28433 | 34870 ft | 492 kts | 153° |
| 2026-05-07 18:15 | 13.27772 | 136.42335 | 34870 ft | 492 kts | 153° |
| 2026-05-07 18:15 | 13.04003 | 136.56205 | 34867 ft | 491 kts | 153° |
| 2026-05-07 18:15 | 12.92146 | 136.63113 | 35461 ft | 487 kts | 153° |
| 2026-05-07 18:16 | 12.80411 | 136.69941 | 36144 ft | 483 kts | 152° |
| 2026-05-07 18:16 | 12.68783 | 136.76701 | 36758 ft | 480 kts | 153° |
| 2026-05-07 18:16 | 12.57123 | 136.83470 | 36857 ft | 480 kts | 153° |
| 2026-05-07 18:17 | 12.33915 | 136.96924 | 36851 ft | 479 kts | 152° |
| 2026-05-07 18:17 | 12.10699 | 137.10356 | 36847 ft | 479 kts | 152° |
| 2026-05-07 18:18 | 11.87446 | 137.23782 | 36842 ft | 480 kts | 152° |
| 2026-05-07 18:18 | 11.64316 | 137.37110 | 36840 ft | 480 kts | 153° |
| 2026-05-07 18:19 | 11.40945 | 137.50552 | 36835 ft | 482 kts | 152° |
| 2026-05-07 18:19 | 11.17559 | 137.63976 | 36831 ft | 483 kts | 152° |
| 2026-05-07 18:20 | 10.94139 | 137.77395 | 36826 ft | 482 kts | 153° |
| 2026-05-07 18:20 | 10.70849 | 137.90715 | 36823 ft | 479 kts | 153° |
| 2026-05-07 18:21 | 10.47617 | 138.03979 | 36822 ft | 478 kts | 153° |
| 2026-05-07 18:21 | 10.28387 | 138.14940 | 36815 ft | 475 kts | 153° |
| 2026-05-07 18:22 | 10.05323 | 138.28066 | 36813 ft | 474 kts | 153° |
| 2026-05-07 18:22 | 9.78605 | 138.43244 | 36807 ft | 475 kts | 152° |
| 2026-05-07 18:23 | 9.59305 | 138.54190 | 36805 ft | 472 kts | 152° |
| 2026-05-07 18:23 | 9.36430 | 138.67146 | 36803 ft | 475 kts | 153° |
| 2026-05-07 18:24 | 9.13437 | 138.80149 | 36796 ft | 473 kts | 152° |
| 2026-05-07 18:24 | 8.90369 | 138.93174 | 36788 ft | 474 kts | 153° |
| 2026-05-07 18:25 | 8.67349 | 139.06154 | 36785 ft | 474 kts | 152° |
| 2026-05-07 18:25 | 8.44257 | 139.19156 | 36783 ft | 475 kts | 152° |
| 2026-05-07 18:26 | 8.21198 | 139.32122 | 36779 ft | 474 kts | 152° |
| 2026-05-07 18:26 | 7.98105 | 139.45089 | 36774 ft | 476 kts | 151° |
| 2026-05-07 18:27 | 7.75182 | 139.57943 | 36771 ft | 473 kts | 150° |
| 2026-05-07 18:27 | 7.52117 | 139.70862 | 36765 ft | 474 kts | 151° |
| 2026-05-07 18:28 | 7.28803 | 139.83904 | 36768 ft | 479 kts | 150° |
| 2026-05-07 18:28 | 7.05421 | 139.96968 | 36765 ft | 481 kts | 150° |
| 2026-05-07 18:29 | 6.82670 | 140.11120 | 36766 ft | 481 kts | 147° |
| 2026-05-07 18:29 | 6.60093 | 140.25633 | 36766 ft | 482 kts | 146° |
| 2026-05-07 18:30 | 6.37631 | 140.40042 | 36770 ft | 480 kts | 147° |
| 2026-05-07 18:30 | 6.15087 | 140.54489 | 36768 ft | 481 kts | 146° |
| 2026-05-07 18:31 | 5.92475 | 140.68964 | 36768 ft | 482 kts | 147° |
| 2026-05-07 18:31 | 5.69833 | 140.83444 | 36775 ft | 483 kts | 147° |
| 2026-05-07 18:32 | 5.47178 | 140.97918 | 36777 ft | 482 kts | 147° |
| 2026-05-07 18:32 | 5.24563 | 141.12355 | 36782 ft | 479 kts | 146° |
| 2026-05-07 18:33 | 5.02049 | 141.26714 | 36785 ft | 479 kts | 146° |
| 2026-05-07 18:33 | 4.79537 | 141.41060 | 36788 ft | 480 kts | 146° |
| 2026-05-07 18:34 | 4.57048 | 141.55381 | 36790 ft | 478 kts | 146° |
| 2026-05-07 18:34 | 4.34626 | 141.69647 | 36795 ft | 476 kts | 146° |
| 2026-05-07 18:35 | 4.12294 | 141.83846 | 36798 ft | 474 kts | 146° |
| 2026-05-07 18:35 | 4.01055 | 141.90438 | 36800 ft | 477 kts | 158° |
| 2026-05-07 18:35 | 3.87878 | 141.92026 | 36804 ft | 481 kts | 178° |
| 2026-05-07 18:36 | 3.61082 | 141.92476 | 36802 ft | 482 kts | 176° |
| 2026-05-07 18:36 | 3.34006 | 141.93046 | 36807 ft | 496 kts | 177° |
| 2026-05-07 18:37 | 3.06539 | 141.93616 | 36808 ft | 485 kts | 177° |
| 2026-05-07 18:37 | 2.79506 | 141.94182 | 36809 ft | 485 kts | 177° |
| 2026-05-07 18:38 | 2.52458 | 141.94745 | 36807 ft | 486 kts | 177° |
| 2026-05-07 18:38 | 2.25415 | 141.95309 | 36810 ft | 485 kts | 177° |
| 2026-05-07 18:39 | 1.98405 | 141.95871 | 36812 ft | 485 kts | 177° |
| 2026-05-07 18:39 | 1.71368 | 141.96435 | 36813 ft | 487 kts | 177° |
| 2026-05-07 18:40 | 1.44221 | 141.97000 | 36813 ft | 488 kts | 176° |
| 2026-05-07 18:40 | 1.17053 | 141.97565 | 36811 ft | 488 kts | 176° |
| 2026-05-07 18:41 | 0.90095 | 141.98126 | 36813 ft | 487 kts | 176° |
| 2026-05-07 18:41 | 0.62999 | 141.98690 | 36815 ft | 487 kts | 177° |
| 2026-05-07 18:42 | 0.35882 | 141.99254 | 36815 ft | 488 kts | 177° |
| 2026-05-07 18:42 | 0.08685 | 141.99820 | 36815 ft | 488 kts | 177° |
| 2026-05-07 18:43 | -0.18470 | 142.00650 | 36815 ft | 488 kts | 176° |
| 2026-05-07 18:43 | -0.45636 | 142.01623 | 36815 ft | 489 kts | 176° |
| 2026-05-07 18:44 | -0.72679 | 142.02585 | 36815 ft | 490 kts | 176° |
| 2026-05-07 18:44 | -0.99925 | 142.03554 | 36815 ft | 490 kts | 176° |
| 2026-05-07 18:45 | -1.27217 | 142.04524 | 36821 ft | 490 kts | 176° |
| 2026-05-07 18:45 | -1.54457 | 142.05493 | 36821 ft | 489 kts | 176° |
| 2026-05-07 18:46 | -1.81675 | 142.06462 | 36823 ft | 489 kts | 176° |
| 2026-05-07 18:46 | -2.08888 | 142.07431 | 36821 ft | 489 kts | 176° |
| 2026-05-07 18:47 | -2.36172 | 142.08402 | 36815 ft | 490 kts | 176° |
| 2026-05-07 18:47 | -2.63441 | 142.09374 | 36812 ft | 491 kts | 176° |
| 2026-05-07 18:48 | -2.90721 | 142.10346 | 36812 ft | 491 kts | 176° |
| 2026-05-07 18:48 | -3.18063 | 142.11321 | 36826 ft | 492 kts | 176° |
| 2026-05-07 18:49 | -3.45448 | 142.12298 | 36841 ft | 493 kts | 176° |
| 2026-05-07 18:49 | -3.72854 | 142.13277 | 36843 ft | 492 kts | 176° |
| 2026-05-07 18:50 | -4.00034 | 142.14248 | 36834 ft | 492 kts | 177° |
| 2026-05-07 18:50 | -4.27379 | 142.15225 | 36839 ft | 490 kts | 177° |
| 2026-05-07 18:51 | -4.54638 | 142.16200 | 36856 ft | 489 kts | 177° |
| 2026-05-07 18:51 | -4.81883 | 142.17175 | 36925 ft | 490 kts | 177° |
| 2026-05-07 18:52 | -5.09235 | 142.18155 | 36966 ft | 492 kts | 178° |
| 2026-05-07 18:52 | -5.36651 | 142.19138 | 36974 ft | 494 kts | 178° |
| 2026-05-07 18:53 | -5.64166 | 142.20126 | 36952 ft | 494 kts | 178° |
| 2026-05-07 18:53 | -5.91481 | 142.21111 | 36920 ft | 494 kts | 178° |
| 2026-05-07 18:54 | -6.18997 | 142.22093 | 36892 ft | 494 kts | 178° |
| 2026-05-07 18:54 | -6.46466 | 142.23080 | 36884 ft | 493 kts | 178° |
| 2026-05-07 18:55 | -6.73954 | 142.24068 | 36884 ft | 495 kts | 178° |
| 2026-05-07 18:55 | -7.01491 | 142.25059 | 36887 ft | 495 kts | 179° |
| 2026-05-07 18:56 | -7.29047 | 142.26052 | 36883 ft | 495 kts | 179° |
| 2026-05-07 18:56 | -7.56598 | 142.27046 | 36883 ft | 496 kts | 179° |
| 2026-05-07 18:57 | -7.84205 | 142.28043 | 36883 ft | 496 kts | 179° |
| 2026-05-07 18:57 | -8.11854 | 142.29043 | 36883 ft | 496 kts | 179° |
| 2026-05-07 18:58 | -8.39508 | 142.30045 | 36884 ft | 497 kts | 179° |
| 2026-05-07 18:58 | -8.67140 | 142.31047 | 36889 ft | 497 kts | 179° |
| 2026-05-07 18:59 | -8.94781 | 142.32051 | 36884 ft | 497 kts | 179° |
| 2026-05-07 18:59 | -9.22429 | 142.33058 | 36883 ft | 496 kts | 180° |
| 2026-05-07 19:00 | -9.49753 | 142.30968 | 36886 ft | 491 kts | 189° |
| 2026-05-07 19:00 | -9.76725 | 142.27699 | 36889 ft | 490 kts | 189° |
| 2026-05-07 19:01 | -10.03794 | 142.24426 | 36889 ft | 489 kts | 189° |
| 2026-05-07 19:01 | -10.30822 | 142.21153 | 36892 ft | 489 kts | 190° |
| 2026-05-07 19:02 | -10.57878 | 142.17871 | 36910 ft | 488 kts | 190° |
| 2026-05-07 19:02 | -10.84849 | 142.14593 | 36905 ft | 488 kts | 190° |
| 2026-05-07 19:03 | -11.11827 | 142.11309 | 37511 ft | 487 kts | 190° |
| 2026-05-07 19:03 | -11.25256 | 142.09672 | 38182 ft | 485 kts | 191° |
| 2026-05-07 19:03 | -11.38655 | 142.08037 | 38700 ft | 484 kts | 191° |
| 2026-05-07 19:03 | -11.51866 | 142.06424 | 38910 ft | 481 kts | 191° |
| 2026-05-07 19:04 | -11.65135 | 142.04801 | 38909 ft | 480 kts | 191° |
| 2026-05-07 19:04 | -11.91627 | 142.01557 | 38913 ft | 479 kts | 191° |
| 2026-05-07 19:05 | -12.18034 | 141.98318 | 38919 ft | 478 kts | 191° |
| 2026-05-07 19:05 | -12.44433 | 141.95072 | 38925 ft | 478 kts | 191° |
| 2026-05-07 19:06 | -12.70887 | 141.92261 | 38927 ft | 481 kts | 185° |
| 2026-05-07 19:06 | -13.11235 | 141.92252 | 38932 ft | 484 kts | 185° |
| 2026-05-07 19:07 | -13.38185 | 141.92256 | 38934 ft | 484 kts | 186° |
| 2026-05-07 19:07 | -13.65029 | 141.92260 | 38937 ft | 484 kts | 186° |
| 2026-05-07 19:08 | -13.91973 | 141.92263 | 38939 ft | 485 kts | 186° |
| 2026-05-07 19:08 | -14.18990 | 141.92265 | 38939 ft | 486 kts | 187° |
| 2026-05-07 19:09 | -14.46072 | 141.92270 | 38941 ft | 487 kts | 187° |
| 2026-05-07 19:09 | -14.73161 | 141.92274 | 38942 ft | 487 kts | 187° |
| 2026-05-07 19:10 | -15.00301 | 141.92277 | 38953 ft | 487 kts | 187° |
| 2026-05-07 19:10 | -15.22840 | 141.92280 | 38950 ft | 486 kts | 187° |
| 2026-05-07 19:11 | -15.49863 | 141.92284 | 38949 ft | 485 kts | 187° |
| 2026-05-07 19:11 | -15.81311 | 141.92773 | 38944 ft | 498 kts | 174° |
| 2026-05-07 19:12 | -15.90176 | 141.96340 | 38950 ft | 512 kts | 160° |
| 2026-05-07 19:12 | -16.02959 | 142.02972 | 38948 ft | 514 kts | 159° |
| 2026-05-07 19:12 | -16.28502 | 142.16110 | 38955 ft | 516 kts | 160° |
| 2026-05-07 19:13 | -16.54302 | 142.29388 | 38965 ft | 519 kts | 160° |
| 2026-05-07 19:13 | -16.80193 | 142.42755 | 38979 ft | 520 kts | 160° |
| 2026-05-07 19:14 | -17.06159 | 142.56200 | 38977 ft | 522 kts | 160° |
| 2026-05-07 19:14 | -17.32232 | 142.69744 | 38988 ft | 523 kts | 160° |
| 2026-05-07 19:15 | -17.58341 | 142.83349 | 38991 ft | 525 kts | 160° |
| 2026-05-07 19:15 | -17.84521 | 142.97036 | 39002 ft | 526 kts | 160° |
| 2026-05-07 19:16 | -18.10733 | 143.10786 | 39006 ft | 528 kts | 160° |
| 2026-05-07 19:16 | -18.37017 | 143.24622 | 39014 ft | 529 kts | 160° |
| 2026-05-07 19:17 | -18.63265 | 143.38485 | 39069 ft | 531 kts | 160° |
| 2026-05-07 19:17 | -18.89778 | 143.52537 | 39039 ft | 535 kts | 160° |
| 2026-05-07 19:18 | -19.16456 | 143.66728 | 39050 ft | 537 kts | 160° |
| 2026-05-07 19:18 | -19.43208 | 143.81009 | 39070 ft | 540 kts | 160° |
| 2026-05-07 19:19 | -19.70048 | 143.95393 | 39091 ft | 541 kts | 160° |
| 2026-05-07 19:19 | -19.96942 | 144.09859 | 39100 ft | 542 kts | 160° |
| 2026-05-07 19:20 | -20.23828 | 144.24376 | 39101 ft | 541 kts | 160° |
| 2026-05-07 19:20 | -20.50740 | 144.38965 | 39103 ft | 542 kts | 160° |
| 2026-05-07 19:21 | -20.77749 | 144.53221 | 39107 ft | 542 kts | 161° |
| 2026-05-07 19:21 | -21.04860 | 144.67485 | 39122 ft | 543 kts | 161° |
| 2026-05-07 19:22 | -21.32000 | 144.81823 | 39127 ft | 544 kts | 161° |
| 2026-05-07 19:22 | -21.58997 | 144.96147 | 39132 ft | 544 kts | 161° |
| 2026-05-07 19:23 | -21.86149 | 145.10617 | 39136 ft | 545 kts | 161° |
| 2026-05-07 19:23 | -22.13355 | 145.25169 | 39143 ft | 544 kts | 161° |
| 2026-05-07 19:24 | -22.40497 | 145.39755 | 39149 ft | 545 kts | 161° |
| 2026-05-07 19:24 | -22.67590 | 145.54378 | 39180 ft | 545 kts | 161° |
| 2026-05-07 19:25 | -22.94740 | 145.69098 | 39170 ft | 544 kts | 161° |
| 2026-05-07 19:25 | -23.21558 | 145.83704 | 39180 ft | 542 kts | 161° |
| 2026-05-07 19:26 | -23.48498 | 145.98442 | 39183 ft | 541 kts | 161° |
| 2026-05-07 19:26 | -23.75388 | 146.13220 | 39197 ft | 542 kts | 161° |
| 2026-05-07 19:27 | -24.02285 | 146.28071 | 39203 ft | 542 kts | 161° |
| 2026-05-07 19:27 | -24.29199 | 146.43003 | 39225 ft | 543 kts | 161° |
| 2026-05-07 19:28 | -24.56150 | 146.58029 | 39244 ft | 542 kts | 161° |
| 2026-05-07 19:28 | -24.82865 | 146.72991 | 39286 ft | 542 kts | 161° |
| 2026-05-07 19:29 | -25.09760 | 146.88132 | 39274 ft | 543 kts | 161° |
| 2026-05-07 19:29 | -25.36671 | 147.03355 | 39287 ft | 543 kts | 161° |
| 2026-05-07 19:30 | -25.63614 | 147.18676 | 39305 ft | 544 kts | 161° |
| 2026-05-07 19:30 | -25.90546 | 147.34068 | 39311 ft | 544 kts | 161° |
| 2026-05-07 19:31 | -26.17418 | 147.49536 | 39316 ft | 544 kts | 161° |
| 2026-05-07 19:31 | -26.44291 | 147.65087 | 39320 ft | 544 kts | 161° |
| 2026-05-07 19:32 | -26.71131 | 147.80703 | 39324 ft | 544 kts | 161° |
| 2026-05-07 19:32 | -26.97951 | 147.96391 | 39329 ft | 543 kts | 161° |
| 2026-05-07 19:33 | -27.24797 | 148.12179 | 39320 ft | 544 kts | 161° |
| 2026-05-07 19:33 | -27.51592 | 148.28027 | 39321 ft | 543 kts | 161° |
| 2026-05-07 19:34 | -27.78291 | 148.43904 | 39315 ft | 542 kts | 161° |
| 2026-05-07 19:34 | -28.04901 | 148.60109 | 39311 ft | 553 kts | 151° |
| 2026-05-07 19:35 | -28.29051 | 148.82094 | 39311 ft | 557 kts | 148° |
| 2026-05-07 19:35 | -28.53059 | 149.04317 | 39309 ft | 557 kts | 148° |
| 2026-05-07 19:36 | -28.76874 | 149.26496 | 39303 ft | 556 kts | 148° |
| 2026-05-07 19:36 | -29.00758 | 149.48886 | 39294 ft | 554 kts | 148° |
| 2026-05-07 19:37 | -29.24547 | 149.71309 | 39293 ft | 552 kts | 148° |
| 2026-05-07 19:37 | -29.48256 | 149.93802 | 39292 ft | 553 kts | 148° |
| 2026-05-07 19:38 | -29.73111 | 150.12515 | 39291 ft | 512 kts | 175° |
| 2026-05-07 19:38 | -30.00638 | 150.20700 | 39281 ft | 511 kts | 176° |
| 2026-05-07 19:39 | -30.28108 | 150.28995 | 39289 ft | 510 kts | 176° |
| 2026-05-07 19:39 | -30.55428 | 150.37288 | 39294 ft | 506 kts | 176° |
| 2026-05-07 19:40 | -30.82597 | 150.45586 | 39297 ft | 504 kts | 176° |
| 2026-05-07 19:40 | -31.09652 | 150.53893 | 39281 ft | 502 kts | 176° |
| 2026-05-07 19:41 | -31.36673 | 150.62241 | 39283 ft | 502 kts | 175° |
| 2026-05-07 19:41 | -31.56590 | 150.68429 | 39275 ft | 501 kts | 175° |
| 2026-05-07 19:42 | -31.63322 | 150.70525 | 39276 ft | 501 kts | 175° |
| 2026-05-07 19:42 | -31.70061 | 150.72627 | 39271 ft | 500 kts | 175° |
| 2026-05-07 19:43 | -31.76792 | 150.74731 | 39266 ft | 500 kts | 175° |
| 2026-05-07 19:43 | -31.83517 | 150.76836 | 39271 ft | 500 kts | 175° |
| 2026-05-07 19:44 | -31.90178 | 150.78924 | 39094 ft | 501 kts | 175° |
| 2026-05-07 19:44 | -31.93547 | 150.79978 | 38889 ft | 502 kts | 175° |
| 2026-05-07 19:44 | -31.96929 | 150.81038 | 38604 ft | 503 kts | 174° |
| 2026-05-07 19:45 | -32.00310 | 150.82100 | 38330 ft | 502 kts | 174° |
| 2026-05-07 19:45 | -32.03692 | 150.83035 | 38063 ft | 495 kts | 180° |
| 2026-05-07 19:45 | -32.07073 | 150.83715 | 37784 ft | 492 kts | 180° |
| 2026-05-07 19:45 | -32.10451 | 150.84345 | 37450 ft | 490 kts | 180° |
| 2026-05-07 19:46 | -32.13816 | 150.84944 | 36910 ft | 488 kts | 180° |
| 2026-05-07 19:46 | -32.17176 | 150.85527 | 36345 ft | 488 kts | 180° |
| 2026-05-07 19:46 | -32.20536 | 150.86105 | 35763 ft | 488 kts | 180° |
| 2026-05-07 19:46 | -32.23856 | 150.86679 | 35188 ft | 487 kts | 179° |
| 2026-05-07 19:47 | -32.27203 | 150.87260 | 34580 ft | 487 kts | 179° |
| 2026-05-07 19:47 | -32.30553 | 150.87845 | 33964 ft | 486 kts | 179° |
| 2026-05-07 19:47 | -32.33895 | 150.88431 | 33258 ft | 485 kts | 179° |
| 2026-05-07 19:47 | -32.37235 | 150.89018 | 32527 ft | 486 kts | 179° |
| 2026-05-07 19:48 | -32.40582 | 150.89607 | 31795 ft | 486 kts | 179° |
| 2026-05-07 19:48 | -32.43930 | 150.90197 | 31068 ft | 486 kts | 178° |
| 2026-05-07 19:48 | -32.47277 | 150.90787 | 30315 ft | 487 kts | 178° |
| 2026-05-07 19:48 | -32.50625 | 150.91379 | 29453 ft | 487 kts | 178° |
| 2026-05-07 19:49 | -32.53966 | 150.91977 | 28682 ft | 485 kts | 178° |
| 2026-05-07 19:49 | -32.57298 | 150.92569 | 27991 ft | 482 kts | 179° |
| 2026-05-07 19:49 | -32.60596 | 150.93155 | 27330 ft | 478 kts | 179° |
| 2026-05-07 19:49 | -32.63876 | 150.93738 | 26721 ft | 473 kts | 179° |
| 2026-05-07 19:50 | -32.67114 | 150.94314 | 26156 ft | 468 kts | 179° |
| 2026-05-07 19:50 | -32.70311 | 150.94882 | 25664 ft | 461 kts | 179° |
| 2026-05-07 19:50 | -32.73462 | 150.95444 | 25107 ft | 455 kts | 179° |
| 2026-05-07 19:50 | -32.76584 | 150.95999 | 24532 ft | 451 kts | 179° |
| 2026-05-07 19:51 | -32.79673 | 150.96547 | 23983 ft | 446 kts | 179° |
| 2026-05-07 19:51 | -32.82730 | 150.97088 | 23374 ft | 442 kts | 179° |
| 2026-05-07 19:51 | -32.85753 | 150.97621 | 22742 ft | 437 kts | 179° |
| 2026-05-07 19:51 | -32.88710 | 150.98145 | 22106 ft | 433 kts | 179° |
| 2026-05-07 19:52 | -32.91677 | 150.98673 | 21530 ft | 429 kts | 178° |
| 2026-05-07 19:52 | -32.94604 | 150.99194 | 21056 ft | 421 kts | 178° |
| 2026-05-07 19:52 | -32.97486 | 150.99708 | 20468 ft | 417 kts | 178° |
| 2026-05-07 19:52 | -33.00341 | 151.00217 | 19878 ft | 413 kts | 178° |
| 2026-05-07 19:53 | -33.03173 | 151.00722 | 19314 ft | 409 kts | 177° |
| 2026-05-07 19:53 | -33.05979 | 151.01223 | 18736 ft | 406 kts | 177° |
| 2026-05-07 19:53 | -33.08758 | 151.01719 | 18145 ft | 402 kts | 177° |
| 2026-05-07 19:53 | -33.11511 | 151.02212 | 17537 ft | 398 kts | 177° |
| 2026-05-07 19:54 | -33.14247 | 151.02702 | 16937 ft | 394 kts | 177° |
| 2026-05-07 19:54 | -33.16946 | 151.03186 | 16353 ft | 391 kts | 177° |
| 2026-05-07 19:54 | -33.19621 | 151.03666 | 15831 ft | 386 kts | 177° |
| 2026-05-07 19:54 | -33.22263 | 151.04141 | 15274 ft | 382 kts | 177° |
| 2026-05-07 19:55 | -33.24879 | 151.04616 | 14732 ft | 378 kts | 177° |
| 2026-05-07 19:55 | -33.27460 | 151.05110 | 14211 ft | 374 kts | 176° |
| 2026-05-07 19:55 | -33.29986 | 151.05596 | 13638 ft | 371 kts | 177° |
| 2026-05-07 19:55 | -33.32522 | 151.06084 | 13022 ft | 368 kts | 176° |
| 2026-05-07 19:56 | -33.35037 | 151.06568 | 12432 ft | 364 kts | 176° |
| 2026-05-07 19:56 | -33.37529 | 151.07049 | 11839 ft | 362 kts | 176° |
| 2026-05-07 19:56 | -33.40002 | 151.07527 | 11308 ft | 359 kts | 176° |
| 2026-05-07 19:56 | -33.42427 | 151.07994 | 11023 ft | 342 kts | 176° |
| 2026-05-07 19:57 | -33.44674 | 151.08436 | 10779 ft | 313 kts | 177° |
| 2026-05-07 19:57 | -33.46728 | 151.08838 | 10606 ft | 287 kts | 177° |
| 2026-05-07 19:57 | -33.48625 | 151.09204 | 10450 ft | 268 kts | 177° |
| 2026-05-07 19:57 | -33.50441 | 151.09549 | 10332 ft | 261 kts | 178° |
| 2026-05-07 19:58 | -33.52219 | 151.09885 | 10217 ft | 257 kts | 178° |
| 2026-05-07 19:58 | -33.53973 | 151.10220 | 10082 ft | 252 kts | 178° |
| 2026-05-07 19:58 | -33.55692 | 151.10550 | 9952 ft | 248 kts | 178° |
| 2026-05-07 19:58 | -33.57393 | 151.10874 | 9681 ft | 248 kts | 178° |
| 2026-05-07 19:59 | -33.59109 | 151.11197 | 9381 ft | 251 kts | 177° |
| 2026-05-07 19:59 | -33.60256 | 151.11415 | 9187 ft | 252 kts | 177° |
| 2026-05-07 19:59 | -33.61991 | 151.11752 | 8924 ft | 252 kts | 176° |
| 2026-05-07 19:59 | -33.63743 | 151.12101 | 8851 ft | 259 kts | 176° |
| 2026-05-07 20:00 | -33.65525 | 151.12448 | 8804 ft | 260 kts | 176° |
| 2026-05-07 20:00 | -33.67299 | 151.12799 | 8629 ft | 257 kts | 176° |
| 2026-05-07 20:00 | -33.69068 | 151.13149 | 8386 ft | 258 kts | 176° |
| 2026-05-07 20:00 | -33.70836 | 151.13502 | 8192 ft | 256 kts | 175° |
| 2026-05-07 20:01 | -33.72590 | 151.13848 | 8047 ft | 256 kts | 176° |
| 2026-05-07 20:01 | -33.74349 | 151.14184 | 7904 ft | 255 kts | 175° |
| 2026-05-07 20:01 | -33.76098 | 151.14520 | 7721 ft | 255 kts | 175° |
| 2026-05-07 20:01 | -33.77851 | 151.14858 | 7580 ft | 255 kts | 175° |
| 2026-05-07 20:02 | -33.79589 | 151.15195 | 7416 ft | 252 kts | 175° |
| 2026-05-07 20:02 | -33.81333 | 151.15324 | 7258 ft | 250 kts | 188° |
| 2026-05-07 20:02 | -33.83037 | 151.14966 | 7148 ft | 248 kts | 194° |
| 2026-05-07 20:02 | -33.84709 | 151.14484 | 6981 ft | 247 kts | 195° |
| 2026-05-07 20:03 | -33.86363 | 151.13996 | 6822 ft | 247 kts | 195° |
| 2026-05-07 20:03 | -33.88046 | 151.13504 | 6674 ft | 247 kts | 194° |
| 2026-05-07 20:03 | -33.89697 | 151.13024 | 6546 ft | 246 kts | 194° |
| 2026-05-07 20:03 | -33.91341 | 151.12549 | 6385 ft | 247 kts | 194° |
| 2026-05-07 20:04 | -33.93013 | 151.12066 | 6226 ft | 246 kts | 194° |
| 2026-05-07 20:04 | -33.94673 | 151.11587 | 6096 ft | 245 kts | 194° |
| 2026-05-07 20:04 | -33.96334 | 151.11110 | 5987 ft | 246 kts | 194° |
| 2026-05-07 20:04 | -33.97984 | 151.10639 | 5810 ft | 242 kts | 194° |
| 2026-05-07 20:05 | -33.99626 | 151.10162 | 5667 ft | 244 kts | 194° |
| 2026-05-07 20:05 | -34.01282 | 151.09681 | 5555 ft | 245 kts | 194° |
| 2026-05-07 20:05 | -34.02929 | 151.09203 | 5383 ft | 242 kts | 194° |
| 2026-05-07 20:05 | -34.04572 | 151.08728 | 5240 ft | 243 kts | 194° |
| 2026-05-07 20:06 | -34.06208 | 151.08255 | 5087 ft | 242 kts | 194° |
| 2026-05-07 20:06 | -34.07868 | 151.07907 | 4933 ft | 242 kts | 184° |
| 2026-05-07 20:06 | -34.09539 | 151.08103 | 4799 ft | 243 kts | 172° |
| 2026-05-07 20:06 | -34.11208 | 151.08525 | 4700 ft | 244 kts | 172° |
| 2026-05-07 20:07 | -34.12840 | 151.08960 | 4522 ft | 242 kts | 171° |
| 2026-05-07 20:07 | -34.14455 | 151.09389 | 4392 ft | 233 kts | 172° |
| 2026-05-07 20:07 | -34.16033 | 151.09805 | 4253 ft | 225 kts | 172° |
| 2026-05-07 20:07 | -34.17519 | 151.10196 | 4124 ft | 217 kts | 172° |
| 2026-05-07 20:08 | -34.18970 | 151.10575 | 4014 ft | 210 kts | 172° |
| 2026-05-07 20:08 | -34.20369 | 151.10947 | 3896 ft | 202 kts | 172° |
| 2026-05-07 20:08 | -34.21715 | 151.11318 | 3788 ft | 195 kts | 172° |
| 2026-05-07 20:08 | -34.23028 | 151.11685 | 3679 ft | 193 kts | 172° |
| 2026-05-07 20:09 | -34.24341 | 151.12046 | 3588 ft | 194 kts | 171° |
| 2026-05-07 20:09 | -34.25591 | 151.12698 | 3467 ft | 203 kts | 145° |
| 2026-05-07 20:09 | -34.26363 | 151.14150 | 3367 ft | 214 kts | 110° |
| 2026-05-07 20:10 | -34.25455 | 151.17563 | 3167 ft | 232 kts | 43° |
| 2026-05-07 20:10 | -34.24179 | 151.18767 | 3108 ft | 233 kts | 35° |
| 2026-05-07 20:10 | -34.22861 | 151.19864 | 3046 ft | 229 kts | 34° |
| 2026-05-07 20:10 | -34.21534 | 151.20951 | 3005 ft | 230 kts | 33° |
| 2026-05-07 20:11 | -34.20211 | 151.22040 | 2987 ft | 230 kts | 34° |
| 2026-05-07 20:11 | -34.18858 | 151.23079 | 2973 ft | 230 kts | 22° |
| 2026-05-07 20:11 | -34.17350 | 151.23442 | 2977 ft | 214 kts | 353° |
| 2026-05-07 20:11 | -34.15931 | 151.23187 | 2984 ft | 201 kts | 341° |
| 2026-05-07 20:12 | -34.14590 | 151.22800 | 3010 ft | 194 kts | 342° |
| 2026-05-07 20:12 | -34.13284 | 151.22451 | 3013 ft | 192 kts | 342° |
| 2026-05-07 20:12 | -34.11976 | 151.22111 | 3009 ft | 191 kts | 342° |
| 2026-05-07 20:12 | -34.10679 | 151.21781 | 2965 ft | 189 kts | 342° |
| 2026-05-07 20:13 | -34.09414 | 151.21472 | 2782 ft | 182 kts | 343° |
| 2026-05-07 20:13 | -34.08197 | 151.21148 | 2564 ft | 176 kts | 340° |
| 2026-05-07 20:13 | -34.07019 | 151.20832 | 2267 ft | 172 kts | 340° |
| 2026-05-07 20:13 | -34.05851 | 151.20542 | 2002 ft | 170 kts | 339° |
| 2026-05-07 20:14 | -34.04721 | 151.20231 | 1762 ft | 162 kts | 336° |
| 2026-05-07 20:14 | -34.03664 | 151.19933 | 1513 ft | 151 kts | 336° |
| 2026-05-07 20:14 | -34.02669 | 151.19660 | 1325 ft | 143 kts | 338° |
| 2026-05-07 20:14 | -34.01694 | 151.19422 | 1124 ft | 143 kts | 339° |
| 2026-05-07 20:15 | -34.00730 | 151.19176 | 919 ft | 140 kts | 339° |
| 2026-05-07 20:15 | -33.99790 | 151.18929 | 717 ft | 139 kts | 341° |
| 2026-05-07 20:15 | -33.98844 | 151.18689 | 557 ft | 138 kts | 341° |
| 2026-05-07 20:15 | -33.97902 | 151.18450 | 380 ft | 138 kts | 341° |
| 2026-05-07 20:16 | -33.96980 | 151.18206 | 160 ft | 132 kts | 342° |
| 2026-05-07 20:16 | -33.96097 | 151.17980 | 31 ft | 126 kts | 343° |
| 2026-05-07 20:16 | -33.95394 | 151.17795 | 26 ft | 78 kts | 348° |
| 2026-05-07 20:16 | -33.94997 | 151.17691 | 27 ft | 49 kts | 348° |
| 2026-05-07 20:17 | -33.94697 | 151.17611 | 28 ft | 39 kts | 345° |
| 2026-05-07 20:17 | -33.94495 | 151.17513 | 28 ft | 23 kts | 330° |
| 2026-05-07 20:17 | -33.94383 | 151.17415 | 29 ft | 19 kts | 317° |
| 2026-05-07 20:17 | -33.94281 | 151.17312 | 28 ft | 20 kts | 328° |
| 2026-05-07 20:18 | -33.94144 | 151.17266 | 30 ft | 21 kts | 350° |
| 2026-05-07 20:18 | -33.94030 | 151.17237 | 29 ft | 12 kts | 346° |
| 2026-05-07 20:18 | -33.93985 | 151.17172 | 28 ft | 9 kts | 274° |
| 2026-05-07 20:18 | -33.93965 | 151.17111 | 27 ft | 8 kts | 321° |
| 2026-05-07 20:19 | -33.93922 | 151.17093 | 28 ft | 6 kts | 346° |
| 2026-05-07 20:19 | -33.93878 | 151.17078 | 28 ft | 7 kts | 345° |
| 2026-05-07 20:19 | -33.93850 | 151.17056 | 27 ft | 2 kts | 297° |
| 2026-05-07 20:19 | -33.93849 | 151.17036 | 30 ft | 3 kts | 269° |
| 2026-05-07 20:20 | -33.93853 | 151.17009 | 29 ft | 4 kts | 259° |
| 2026-05-07 20:20 | -33.93859 | 151.16980 | 27 ft | 3 kts | 255° |
| 2026-05-07 20:20 | -33.93860 | 151.16974 | 28 ft | 1 kts | 255° |
| 2026-05-07 20:20 | -33.93861 | 151.16971 | 28 ft | 0 kts | 254° |
| 2026-05-07 20:21 | -33.93861 | 151.16970 | 28 ft | 0 kts | 256° |